Market Center, South Carolina
Current Conditions -  °F | °C
As of 6:53 AM on Friday 21 Nov 2014 (Local Time) from KCUB Reporting Station
Clear Clear  
Wind Chill: 35°   Ceiling: Unl
Heat Index: 35°   Visibility: 9mi
Dew Point: 32°   Wind: 0mph
Humidity: 89%   Direction: NA
Pressure: 30.33"   Gusts: NA
Location:  33.9841°N, 81.0264°W
Report Text: KCUB 211153Z AUTO 00000KT 9SM CLR 02/00 A3033 RMK AO2 SLP268 T00170000 10067 20011 53023
Loading
Personal Weather Stations






























Interactive Weather Map New forecast layout! Learn more

10-Day Weather Forecast

Advertisements
Track Severe Weather on mobile